Time;durP1;ratioP1;P1;durP2;ratioP2;P2;SDS_P1;SDS_P2;PMS_P1;PMS_P2;Temp;Humidity;BMP_temperature;BMP_pressure;BME280_temperature;BME280_humidity;BME280_pressure;Samples;Min_cycle;Max_cycle;Signal;HPM_P1;HPM_P2
2022/02/10 00:21:50;;;;;;;9.20;4.80;;;;;;;3.78;82.19;97369.86;107054;1272;195852;-83
2022/02/10 00:35:36;;;;;;;5.40;3.70;;;;;;;3.73;82.44;97367.46;107141;1272;122205;-83
2022/02/10 00:38:04;;;;;;;6.30;3.60;;;;;;;3.77;82.29;97371.41;107264;1272;107520;-83
2022/02/10 00:40:36;;;;;;;6.90;3.60;;;;;;;3.80;82.22;97370.71;106993;1272;179456;-83
2022/02/10 00:43:06;;;;;;;5.10;3.30;;;;;;;3.85;82.07;97365.27;106990;1272;165166;-83
2022/02/10 00:45:36;;;;;;;4.20;2.90;;;;;;;3.92;81.66;97367.77;105626;1272;1756944;-83
2022/02/10 00:48:08;;;;;;;3.90;2.60;;;;;;;3.98;81.38;97367.85;107106;1272;179069;-83
2022/02/10 00:50:38;;;;;;;4.10;2.50;;;;;;;4.02;81.19;97364.19;106916;1274;143624;-83
2022/02/10 00:53:11;;;;;;;;;;;;;;;4.07;80.97;97364.06;105022;1272;2562815;-83
2022/02/10 00:55:40;;;;;;;4.60;2.40;;;;;;;4.12;80.59;97358.93;106955;1272;194725;-83
2022/02/10 00:58:11;;;;;;;3.90;2.60;;;;;;;4.18;80.46;97357.45;105666;1274;2027326;-84
2022/02/10 01:12:19;;;;;;;2.50;2.10;;;;;;;4.26;79.41;97354.66;107367;1273;137034;-83
2022/02/10 01:31:40;;;;;;;2.40;2.20;;;;;;;4.22;78.80;97334.58;105187;1273;2218542;-84
2022/02/10 01:34:08;;;;;;;2.50;2.20;;;;;;;4.20;78.85;97332.27;106999;1273;161041;-83
2022/02/10 01:36:37;;;;;;;3.40;2.30;;;;;;;4.19;79.09;97330.19;107109;1273;165558;-83
2022/02/10 01:39:07;;;;;;;2.90;2.00;;;;;;;4.17;79.05;97322.22;107022;1274;161069;-83
2022/02/10 01:42:08;;;;;;;3.40;2.30;;;;;;;4.16;79.05;97316.63;106981;1273;201701;-84
2022/02/10 02:03:17;;;;;;;3.60;2.70;;;;;;;3.87;79.70;97302.62;105783;1274;1594900;-83
2022/02/10 02:04:16;;;;;;;5.80;3.40;;;;;;;3.68;80.12;97295.31;107123;1273;165530;-83
2022/02/10 02:06:46;;;;;;;4.50;2.70;;;;;;;3.64;80.29;97300.34;107037;1274;135967;-83
2022/02/10 02:09:18;;;;;;;5.20;3.30;;;;;;;3.59;80.44;97297.61;107114;1274;139745;-83
2022/02/10 02:11:48;;;;;;;3.90;3.00;;;;;;;3.55;80.51;97301.08;106851;1274;217970;-83
2022/02/10 02:14:20;;;;;;;4.20;3.00;;;;;;;3.54;80.90;97304.80;105528;1274;2089002;-83
2022/02/10 02:16:53;;;;;;;5.30;3.10;;;;;;;3.53;80.95;97301.79;106998;1274;190512;-83
2022/02/10 02:19:23;;;;;;;4.30;2.80;;;;;;;3.54;80.92;97302.91;107367;1272;165750;-83
2022/02/10 02:21:52;;;;;;;3.40;2.50;;;;;;;3.54;80.96;97305.74;107179;1273;166960;-83
2022/02/10 02:24:20;;;;;;;6.10;3.60;;;;;;;3.53;81.02;97304.53;107017;1273;148532;-83
2022/02/10 02:26:51;;;;;;;5.00;2.70;;;;;;;3.52;81.18;97307.48;107094;1274;166843;-83
2022/02/10 02:29:27;;;;;;;4.10;2.90;;;;;;;3.52;81.12;97312.04;107186;1274;92769;-83
2022/02/10 02:32:01;;;;;;;5.50;3.30;;;;;;;3.51;81.24;97308.73;107226;1274;144556;-83
2022/02/10 02:35:10;;;;;;;4.20;3.20;;;;;;;3.48;81.33;97311.54;105657;1274;2068196;-82
2022/02/10 03:05:58;;;;;;;4.90;2.80;;;;;;;3.24;82.28;97307.13;107209;1274;126192;-83
2022/02/10 03:08:27;;;;;;;5.00;3.70;;;;;;;3.24;82.28;97304.30;107168;1273;124289;-82
2022/02/10 03:11:02;;;;;;;5.30;4.20;;;;;;;3.23;82.38;97306.20;107480;1273;120924;-83
2022/02/10 03:13:35;;;;;;;6.70;3.60;;;;;;;3.21;82.39;97308.02;107165;1273;96481;-83
2022/02/10 03:16:25;;;;;;;4.00;3.40;;;;;;;3.20;82.54;97305.25;107158;1274;112050;-83
2022/02/10 03:18:59;;;;;;;6.50;3.70;;;;;;;3.19;82.59;97308.32;105729;1274;2082885;-83
2022/02/10 03:21:53;;;;;;;5.60;3.50;;;;;;;3.16;82.70;97306.70;106991;1275;165833;-82
2022/02/10 04:03:43;;;;;;;4.60;3.30;;;;;;;3.22;83.07;97288.65;107130;1274;160701;-83
2022/02/10 04:06:31;;;;;;;5.50;3.30;;;;;;;3.20;82.89;97284.56;107084;1274;177033;-83
2022/02/10 04:09:25;;;;;;;3.90;3.20;;;;;;;3.20;83.03;97282.52;107128;1273;153550;-83
2022/02/10 04:12:08;;;;;;;6.20;3.40;;;;;;;3.18;83.12;97283.66;107067;1274;219084;-83
2022/02/10 04:14:43;;;;;;;4.50;2.80;;;;;;;3.16;83.01;97283.17;107189;1274;181374;-83
2022/02/10 04:17:37;;;;;;;4.80;3.30;;;;;;;3.14;83.23;97283.02;107148;1274;140123;-83
2022/02/10 04:20:30;;;;;;;4.70;3.20;;;;;;;3.13;83.15;97285.28;107093;1274;162755;-82
2022/02/10 04:23:09;;;;;;;4.00;2.90;;;;;;;3.11;83.15;97290.38;107089;1274;138596;-82
2022/02/10 04:25:51;;;;;;;6.10;3.10;;;;;;;3.11;83.34;97284.22;106952;1274;192509;-83
2022/02/10 04:28:34;;;;;;;3.60;2.50;;;;;;;3.11;83.29;97286.27;104718;1272;2120193;-83
2022/02/10 04:31:27;;;;;;;4.50;2.80;;;;;;;3.13;83.25;97280.85;105723;1272;1892636;-82
2022/02/10 04:56:38;;;;;;;4.20;2.80;;;;;;;3.25;82.56;97279.75;107198;1274;109218;-83
2022/02/10 04:59:21;;;;;;;5.60;3.20;;;;;;;3.25;82.43;97277.05;107036;1274;193048;-83
2022/02/10 05:02:07;;;;;;;5.20;3.40;;;;;;;3.26;82.37;97274.54;107234;1272;116248;-83
2022/02/10 05:05:05;;;;;;;4.30;3.10;;;;;;;3.26;82.27;97272.20;107184;1274;160807;-82
2022/02/10 05:16:24;;;;;;;4.50;3.10;;;;;;;3.30;81.84;97255.58;107185;1273;148836;-83
2022/02/10 05:19:20;;;;;;;4.70;3.00;;;;;;;3.33;81.86;97255.60;107475;1274;127800;-83
2022/02/10 05:22:16;;;;;;;4.60;2.90;;;;;;;3.34;81.80;97247.92;107171;1273;192653;-83
2022/02/10 05:31:18;;;;;;;3.80;2.80;;;;;;;3.35;81.74;97242.67;107203;1274;119361;-82
2022/02/10 05:33:40;;;;;;;5.50;3.00;;;;;;;3.41;81.45;97255.94;107026;1274;179396;-83
2022/02/10 05:36:11;;;;;;;4.20;3.00;;;;;;;3.44;81.31;97261.66;106149;1274;2066511;-82
2022/02/10 05:38:46;;;;;;;4.10;3.10;;;;;;;3.47;81.29;97255.98;107604;1273;211387;-82
2022/02/10 05:44:26;;;;;;;4.10;3.10;;;;;;;3.49;81.09;97251.89;107194;1274;137532;-82
2022/02/10 05:47:25;;;;;;;5.20;3.30;;;;;;;3.47;81.04;97256.34;107397;1274;152267;-83
2022/02/10 05:58:15;;;;;;;4.20;3.10;;;;;;;3.49;80.84;97253.83;107084;1272;196029;-83
2022/02/10 06:49:01;;;;;;;3.40;2.90;;;;;;;3.61;81.01;97266.98;106929;1277;120377;-83
2022/02/10 06:51:37;;;;;;;4.70;2.90;;;;;;;3.64;80.95;97270.20;107152;1274;152180;-82
2022/02/10 06:54:16;;;;;;;4.50;3.10;;;;;;;3.66;80.98;97265.23;107090;1273;137365;-83
2022/02/10 06:57:22;;;;;;;5.40;3.20;;;;;;;3.69;81.02;97259.25;106844;1275;255821;-83
2022/02/10 07:03:07;;;;;;;4.10;2.90;;;;;;;3.77;80.68;97261.11;107064;1274;126447;-83
2022/02/10 07:05:51;;;;;;;4.40;2.90;;;;;;;3.79;80.67;97261.73;107140;1274;170355;-83
2022/02/10 07:08:44;;;;;;;4.90;3.30;;;;;;;3.83;80.55;97260.41;105836;1274;1506721;-83
2022/02/10 07:11:39;;;;;;;5.90;3.60;;;;;;;3.89;80.26;97255.27;106834;1273;211875;-84
2022/02/10 07:14:31;;;;;;;5.40;3.70;;;;;;;3.93;80.03;97255.45;106736;1274;239384;-83
2022/02/10 07:17:16;;;;;;;5.90;3.60;;;;;;;3.96;79.92;97250.42;107088;1274;125904;-82
2022/02/10 07:47:57;;;;;;;8.40;5.60;;;;;;;4.26;78.95;97234.59;104879;1274;1562085;-83
2022/02/10 07:53:37;;;;;;;8.50;5.20;;;;;;;4.28;78.88;97242.27;106905;1274;237628;-83
2022/02/10 07:56:29;;;;;;;8.60;5.30;;;;;;;4.30;78.72;97239.33;107013;1274;168072;-83
2022/02/10 07:59:30;;;;;;;9.20;5.30;;;;;;;4.32;78.63;97237.48;105983;1274;1292177;-81
2022/02/10 08:49:56;;;;;;;10.60;5.50;;;;;;;4.59;77.41;97228.89;106869;1274;161213;-83
2022/02/10 08:55:30;;;;;;;8.30;5.90;;;;;;;4.67;77.68;97224.23;107109;1274;122500;-83
2022/02/10 09:03:55;;;;;;;10.20;6.40;;;;;;;4.80;77.31;97225.52;106825;1274;178499;-83
2022/02/10 09:06:39;;;;;;;9.90;5.30;;;;;;;4.83;77.45;97227.49;106266;1273;1407966;-83
2022/02/10 09:12:22;;;;;;;8.80;4.90;;;;;;;4.94;77.24;97230.69;107150;1274;174447;-83
2022/02/10 09:55:04;;;;;;;10.00;5.70;;;;;;;5.54;75.62;97216.46;106697;1274;285662;-83
2022/02/10 10:00:19;;;;;;;10.90;5.70;;;;;;;5.67;75.98;97207.59;106790;1274;194461;-83
2022/02/10 10:02:53;;;;;;;8.70;5.30;;;;;;;5.76;75.84;97204.37;106959;1274;234683;-83
2022/02/10 10:05:29;;;;;;;9.90;5.70;;;;;;;5.83;75.64;97196.51;107103;1274;115322;-83
2022/02/10 10:08:20;;;;;;;8.70;5.40;;;;;;;5.87;75.34;97195.32;107175;1274;132290;-83
2022/02/10 10:11:13;;;;;;;;;;;;;;;5.92;75.32;97189.72;107109;1274;152656;-83
2022/02/10 10:14:00;;;;;;;9.10;5.10;;;;;;;5.96;75.30;97187.58;107009;1274;179282;-84
2022/02/10 10:16:48;;;;;;;9.00;5.10;;;;;;;6.02;75.02;97183.93;107192;1274;111840;-83
2022/02/10 10:19:41;;;;;;;5.70;4.10;;;;;;;6.10;74.88;97180.48;106969;1274;184206;-83
2022/02/10 10:22:22;;;;;;;9.50;5.30;;;;;;;6.12;74.36;97172.70;106968;1273;161425;-83
2022/02/10 10:25:25;;;;;;;7.90;4.50;;;;;;;6.19;74.85;97169.88;107038;1274;201878;-83
2022/02/10 10:53:47;;;;;;;4.60;3.30;;;;;;;6.74;71.57;97116.39;106996;1274;134470;-84
2022/02/10 10:56:23;;;;;;;3.50;2.50;;;;;;;6.65;70.71;97110.56;107189;1274;124843;-83
2022/02/10 10:59:28;;;;;;;4.40;2.70;;;;;;;6.61;70.83;97110.16;107023;1273;174866;-83
2022/02/10 11:37:10;;;;;;;8.20;4.30;;;;;;;6.92;69.74;97026.05;106899;1273;187251;-83
2022/02/10 11:40:12;;;;;;;7.10;4.20;;;;;;;7.02;69.51;97029.27;107009;1273;156658;-83
2022/02/10 11:42:52;;;;;;;7.20;4.30;;;;;;;7.08;68.74;97024.35;106816;1275;184078;-83
2022/02/10 14:10:36;;;;;;;6.10;2.80;;;;;;;9.97;59.34;96846.89;105978;1274;2276187;-84
2022/02/10 14:16:01;;;;;;;4.40;2.60;;;;;;;9.80;59.27;96854.39;107145;1273;146164;-84
2022/02/10 14:18:31;;;;;;;4.30;2.40;;;;;;;9.75;59.16;96852.19;107050;1274;198631;-83
2022/02/10 14:21:11;;;;;;;5.20;2.10;;;;;;;9.72;59.49;96854.52;105339;1274;2277614;-84
2022/02/10 14:26:43;;;;;;;2.70;1.90;;;;;;;9.57;59.46;96855.32;107304;1274;112372;-85
2022/02/10 14:29:12;;;;;;;3.10;2.00;;;;;;;9.25;59.36;96853.30;107168;1275;117077;-85
2022/02/10 14:31:40;;;;;;;2.70;1.80;;;;;;;8.99;59.56;96852.36;103155;1274;1982596;-85
2022/02/10 14:34:08;;;;;;;5.10;2.20;;;;;;;8.85;59.86;96849.57;106829;1273;149618;-85
2022/02/10 14:36:44;;;;;;;2.30;1.70;;;;;;;8.84;60.42;96851.99;106998;1274;126196;-85
2022/02/10 14:39:30;;;;;;;4.30;2.10;;;;;;;8.82;60.52;96856.27;106692;1274;217316;-85
2022/02/10 14:42:29;;;;;;;3.90;2.00;;;;;;;8.83;60.34;96848.45;106269;1274;1233827;-82
2022/02/10 15:36:02;;;;;;;3.70;2.50;;;;;;;7.33;63.35;96781.42;106881;1274;147368;-85
2022/02/10 15:50:06;;;;;;;4.80;2.40;;;;;;;7.16;63.38;96785.18;105583;1274;2078600;-84
2022/02/10 15:55:50;;;;;;;5.30;2.90;;;;;;;6.98;63.99;96776.08;106943;1274;211620;-85
2022/02/10 16:18:16;;;;;;;7.80;4.20;;;;;;;6.35;65.60;96761.93;106783;1276;222391;-84
2022/02/10 16:20:50;;;;;;;7.00;4.20;;;;;;;6.29;65.86;96765.48;106820;1275;200116;-84
2022/02/10 16:23:23;;;;;;;9.70;4.90;;;;;;;6.26;65.97;96770.30;106894;1274;217877;-84
2022/02/10 16:26:08;;;;;;;11.20;6.10;;;;;;;6.22;66.19;96770.91;107110;1274;112649;-83
2022/02/10 16:28:40;;;;;;;12.00;6.70;;;;;;;6.19;66.26;96773.38;107240;1274;99698;-83
2022/02/10 16:31:11;;;;;;;11.50;6.20;;;;;;;6.17;66.67;96772.10;107034;1274;186993;-83
2022/02/10 16:33:42;;;;;;;11.10;6.10;;;;;;;6.15;66.65;96766.08;104818;1274;1789054;-83
2022/02/10 16:36:16;;;;;;;48.30;22.40;;;;;;;6.14;66.83;96756.85;106974;1274;155656;-83
2022/02/10 16:38:46;;;;;;;33.20;17.70;;;;;;;6.12;66.84;96754.77;106943;1275;170152;-83
2022/02/10 16:41:16;;;;;;;39.30;19.10;;;;;;;6.11;66.94;96747.19;106005;1274;1560507;-83
2022/02/10 16:43:45;;;;;;;36.90;19.20;;;;;;;6.09;66.88;96748.38;106941;1274;209222;-83
2022/02/10 16:46:15;;;;;;;9.60;5.00;;;;;;;6.09;66.98;96740.12;107004;1274;134794;-84
2022/02/10 16:48:44;;;;;;;20.20;11.20;;;;;;;6.12;67.16;96735.83;107098;1274;110502;-83
2022/02/10 16:51:13;;;;;;;12.70;7.70;;;;;;;6.08;66.97;96731.36;105905;1274;1448574;-83
2022/02/10 16:53:48;;;;;;;13.70;7.60;;;;;;;6.00;67.10;96728.20;106983;1274;174327;-83
2022/02/10 16:56:21;;;;;;;13.30;7.20;;;;;;;5.91;67.27;96713.70;106978;1273;200569;-83
2022/02/10 16:59:04;;;;;;;18.30;7.80;;;;;;;5.86;67.52;96716.13;107030;1274;148968;-83
2022/02/10 17:18:38;;;;;;;5.70;4.30;;;;;;;6.17;67.49;96715.71;106903;1274;257374;-84
2022/02/10 17:21:26;;;;;;;6.40;3.30;;;;;;;6.24;67.50;96719.65;105111;1274;1280607;-83
2022/02/10 17:26:57;;;;;;;4.20;2.50;;;;;;;6.26;67.27;96719.49;106954;1273;197381;-83
2022/02/10 17:29:37;;;;;;;6.40;3.50;;;;;;;6.28;67.33;96712.78;105778;1273;2059708;-83
2022/02/10 17:32:14;;;;;;;6.80;4.00;;;;;;;6.26;67.27;96712.40;106205;1274;1500771;-83
2022/02/10 17:35:17;;;;;;;7.00;3.70;;;;;;;6.22;67.28;96711.63;107060;1274;196419;-83
2022/02/10 17:46:40;;;;;;;6.90;3.90;;;;;;;6.06;67.72;96705.60;107805;1274;79997;-83
2022/02/10 17:52:00;;;;;;;6.20;3.70;;;;;;;6.05;67.66;96697.88;107636;1274;33362;-83
2022/02/10 17:54:31;;;;;;;6.50;3.10;;;;;;;6.05;67.68;96695.25;107358;1274;1838428;-81
2022/02/10 17:57:03;;;;;;;4.70;3.40;;;;;;;6.05;67.69;96697.89;107780;1273;38452;-82
2022/02/10 17:59:33;;;;;;;5.90;3.70;;;;;;;6.05;67.92;96699.05;106443;1274;1754306;-82
2022/02/10 18:02:02;;;;;;;6.00;3.90;;;;;;;6.04;67.89;96703.45;107771;1274;38835;-82
2022/02/10 18:04:32;;;;;;;6.40;4.30;;;;;;;6.05;67.99;96697.74;106138;1275;2052745;-83
2022/02/10 18:07:01;;;;;;;8.10;4.30;;;;;;;6.09;67.77;96700.38;105189;1275;2103411;-81
2022/02/10 18:13:06;;;;;;;7.00;3.60;;;;;;;6.19;67.43;96695.32;107544;1274;205930;-83
2022/02/10 18:15:38;;;;;;;4.30;2.50;;;;;;;6.22;67.19;96689.09;107666;1275;35057;-83
2022/02/10 18:18:16;;;;;;;5.90;3.10;;;;;;;6.37;66.88;96685.23;107565;1274;118581;-83
2022/02/10 18:20:52;;;;;;;5.50;2.90;;;;;;;6.45;66.58;96686.34;106266;1274;1823814;-83
2022/02/10 18:23:26;;;;;;;7.10;3.20;;;;;;;6.44;66.24;96689.50;105060;1274;2044715;-83
2022/02/10 18:26:03;;;;;;;2.70;2.20;;;;;;;6.52;66.06;96690.53;106428;1274;1791205;-83
2022/02/10 18:28:52;;;;;;;5.80;2.90;;;;;;;6.63;65.43;96703.64;106396;1274;1787035;-83
2022/02/10 19:02:35;;;;;;;3.60;2.60;;;;;;;6.38;66.35;96722.38;107668;1274;84658;-83
2022/02/10 19:08:07;;;;;;;4.30;3.10;;;;;;;6.37;66.51;96724.89;107577;1274;64321;-83
2022/02/10 19:10:44;;;;;;;6.80;3.70;;;;;;;6.38;66.35;96729.53;106312;1274;1765821;-83
2022/02/10 19:13:16;;;;;;;6.30;3.70;;;;;;;6.39;66.51;96737.80;104884;1275;2005094;-83
2022/02/10 19:15:44;;;;;;;4.80;3.10;;;;;;;6.30;66.57;96736.33;107260;1275;245009;-83
2022/02/10 19:18:13;;;;;;;3.80;2.90;;;;;;;6.25;66.96;96737.86;107393;1274;188128;-83
2022/02/10 19:20:41;;;;;;;6.70;3.50;;;;;;;6.21;67.03;96741.79;106402;1274;1834625;-83
2022/02/10 19:23:10;;;;;;;8.00;4.10;;;;;;;6.20;67.22;96741.45;106339;1274;1703651;-83
2022/02/10 19:25:40;;;;;;;5.80;3.60;;;;;;;6.18;67.10;96752.79;105363;1274;1917695;-83
2022/02/10 19:28:09;;;;;;;8.30;3.80;;;;;;;6.12;67.38;96753.62;106949;1274;272541;-82
2022/02/10 19:30:41;;;;;;;5.10;3.40;;;;;;;6.07;67.48;96748.79;105769;1275;1547945;-83
2022/02/10 19:33:13;;;;;;;6.40;3.80;;;;;;;6.02;67.44;96743.91;106053;1275;1274222;-83
2022/02/10 19:35:48;;;;;;;6.30;3.70;;;;;;;5.94;67.61;96750.89;105464;1274;2148220;-83
2022/02/10 19:38:21;;;;;;;6.70;4.20;;;;;;;5.86;68.00;96751.02;107018;1274;165844;-83
2022/02/10 19:40:52;;;;;;;8.90;4.00;;;;;;;5.80;67.77;96754.94;107087;1274;155118;-82
2022/02/10 19:43:22;;;;;;;8.20;3.70;;;;;;;5.72;68.13;96756.52;104297;1274;2006330;-83
2022/02/10 19:45:51;;;;;;;11.40;4.80;;;;;;;5.63;68.32;96754.52;107104;1274;182988;-83
2022/02/10 19:48:22;;;;;;;9.10;4.50;;;;;;;5.55;68.26;96753.40;107159;1274;116112;-83
2022/02/10 19:50:53;;;;;;;9.30;4.60;;;;;;;5.48;68.70;96748.30;107104;1274;169540;-82
2022/02/10 19:53:23;;;;;;;8.30;4.80;;;;;;;5.44;68.78;96746.92;106920;1274;251509;-83
2022/02/10 19:55:53;;;;;;;9.90;5.30;;;;;;;5.38;68.98;96750.85;107025;1274;163586;-83
2022/02/10 19:58:24;;;;;;;11.10;5.40;;;;;;;5.33;69.01;96753.51;107032;1273;140939;-83
2022/02/10 20:00:58;;;;;;;8.30;5.30;;;;;;;5.28;69.39;96747.55;105756;1274;1697556;-82
2022/02/10 20:03:31;;;;;;;10.20;5.70;;;;;;;5.27;69.39;96750.48;107158;1274;198830;-83
2022/02/10 20:06:03;;;;;;;8.30;4.50;;;;;;;5.24;69.58;96754.55;107044;1274;120450;-83
2022/02/10 20:08:33;;;;;;;7.70;4.20;;;;;;;5.32;69.76;96745.56;106973;1274;213684;-82
2022/02/10 20:11:08;;;;;;;8.70;3.90;;;;;;;5.48;69.84;96742.98;107200;1274;104513;-82
2022/02/10 20:13:38;;;;;;;8.30;4.90;;;;;;;5.57;69.63;96747.27;107179;1274;191873;-82
2022/02/10 20:16:08;;;;;;;9.10;5.80;;;;;;;5.62;69.53;96755.95;107053;1274;125007;-82
2022/02/10 20:18:38;;;;;;;11.10;6.20;;;;;;;5.61;69.54;96751.63;105312;1274;1358489;-82
2022/02/10 20:21:11;;;;;;;14.70;6.60;;;;;;;5.57;69.77;96752.53;107172;1274;143628;-83
2022/02/10 20:23:40;;;;;;;10.00;6.60;;;;;;;5.52;69.84;96747.16;107119;1274;168706;-83
2022/02/10 20:26:11;;;;;;;11.00;6.50;;;;;;;5.51;69.87;96748.88;107097;1274;140993;-83
2022/02/10 20:28:41;;;;;;;11.50;6.80;;;;;;;5.50;70.09;96751.81;107214;1274;148779;-83
2022/02/10 20:31:11;;;;;;;11.20;6.90;;;;;;;5.49;70.22;96752.21;106985;1274;151173;-82
2022/02/10 20:33:40;;;;;;;;;;;;;;;5.49;70.31;96756.27;107074;1274;144099;-83
2022/02/10 20:36:10;;;;;;;11.30;5.90;;;;;;;5.51;70.30;96761.14;107135;1273;155326;-82
2022/02/10 20:38:43;;;;;;;12.70;6.40;;;;;;;5.54;70.14;96762.73;107099;1274;157148;-83
2022/02/10 20:41:15;;;;;;;8.90;5.20;;;;;;;5.56;70.17;96760.46;106908;1274;192748;-83
2022/02/10 20:43:46;;;;;;;11.10;5.80;;;;;;;5.57;70.27;96767.89;107083;1274;200430;-83
2022/02/10 20:46:18;;;;;;;8.40;5.40;;;;;;;5.58;70.19;96767.06;107080;1274;160388;-82
2022/02/10 20:48:47;;;;;;;10.80;5.90;;;;;;;5.59;70.16;96765.17;107152;1274;127158;-81
2022/02/10 20:51:16;;;;;;;11.30;6.00;;;;;;;5.59;70.15;96758.18;107164;1274;134372;-82
2022/02/10 20:53:47;;;;;;;14.00;6.30;;;;;;;5.57;69.95;96759.52;107091;1274;114254;-83
2022/02/10 20:56:19;;;;;;;9.70;5.40;;;;;;;5.60;69.95;96766.72;107168;1274;103159;-83
2022/02/10 20:58:54;;;;;;;10.00;5.50;;;;;;;5.61;70.13;96768.04;107015;1274;125591;-83
2022/02/10 21:01:24;;;;;;;9.20;5.20;;;;;;;5.63;70.14;96758.45;106987;1274;116798;-83
2022/02/10 21:03:54;;;;;;;9.40;4.80;;;;;;;5.65;69.98;96760.39;107002;1273;144101;-83
2022/02/10 21:06:42;;;;;;;11.00;5.50;;;;;;;5.67;69.84;96758.40;107039;1274;172090;-83
2022/02/10 21:09:18;;;;;;;10.50;5.40;;;;;;;5.68;69.91;96762.83;106982;1274;215255;-82
2022/02/10 21:11:51;;;;;;;9.60;5.90;;;;;;;5.67;69.87;96762.52;105599;1274;1904169;-83
2022/02/10 21:14:25;;;;;;;7.70;5.20;;;;;;;5.66;69.82;96758.91;104939;1274;1541733;-83
2022/02/10 21:16:55;;;;;;;8.80;5.10;;;;;;;5.70;69.92;96764.48;107038;1274;139055;-83
2022/02/10 21:19:24;;;;;;;9.50;5.30;;;;;;;5.75;69.98;96762.70;107068;1274;163696;-83
2022/02/10 21:21:53;;;;;;;7.90;5.00;;;;;;;5.74;70.05;96762.53;106924;1274;188100;-83
2022/02/10 21:24:27;;;;;;;9.20;4.90;;;;;;;5.79;69.92;96764.09;106983;1274;144444;-83
2022/02/10 21:27:17;;;;;;;9.60;4.90;;;;;;;5.82;69.88;96756.81;107218;1274;164914;-82
2022/02/10 21:29:53;;;;;;;11.80;6.30;;;;;;;5.83;69.78;96757.55;106971;1274;170928;-82
2022/02/10 21:32:22;;;;;;;10.50;5.50;;;;;;;5.81;69.66;96751.33;107100;1273;114787;-83
2022/02/10 21:35:07;;;;;;;10.60;5.80;;;;;;;5.81;69.68;96753.38;106876;1274;151527;-82
2022/02/10 21:37:44;;;;;;;11.70;6.40;;;;;;;5.76;69.79;96750.89;106919;1275;164309;-82
2022/02/10 21:40:27;;;;;;;11.60;6.00;;;;;;;5.70;69.93;96748.44;106963;1274;169846;-83
2022/02/10 21:57:09;;;;;;;9.80;5.70;;;;;;;5.55;70.41;96752.40;106978;1274;197222;-82
2022/02/10 22:11:14;;;;;;;8.90;5.20;;;;;;;5.63;70.51;96751.93;107251;1274;178082;-83
2022/02/10 22:19:17;;;;;;;8.60;5.00;;;;;;;5.63;70.54;96758.23;107146;1274;171969;-83
2022/02/10 22:21:49;;;;;;;11.20;6.20;;;;;;;5.61;70.55;96760.83;107241;1274;100609;-83
2022/02/10 22:24:19;;;;;;;11.10;6.20;;;;;;;5.56;70.63;96763.88;107255;1274;114893;-83
2022/02/10 22:26:50;;;;;;;8.70;5.70;;;;;;;5.52;70.84;96757.93;105925;1274;1520317;-83
2022/02/10 22:29:24;;;;;;;9.00;6.10;;;;;;;5.47;70.88;96761.22;106939;1274;181012;-83
2022/02/10 22:32:07;;;;;;;9.70;5.70;;;;;;;5.42;71.31;96756.05;107135;1274;112179;-83
2022/02/10 22:34:41;;;;;;;10.50;6.10;;;;;;;5.38;71.44;96762.90;107088;1274;153744;-83
2022/02/10 22:37:13;;;;;;;10.00;6.10;;;;;;;5.36;71.53;96760.29;106967;1274;179457;-82
2022/02/10 22:39:45;;;;;;;9.50;5.20;;;;;;;5.35;71.66;96767.38;107048;1274;158412;-83
2022/02/10 22:42:13;;;;;;;10.40;5.80;;;;;;;5.35;71.61;96766.49;107080;1274;166236;-83
2022/02/10 22:44:42;;;;;;;10.70;5.80;;;;;;;5.33;71.67;96764.86;105925;1274;1283125;-83
2022/02/10 22:47:10;;;;;;;9.90;5.90;;;;;;;5.32;71.73;96769.42;106907;1274;229328;-83
2022/02/10 22:49:39;;;;;;;8.00;5.70;;;;;;;5.31;71.82;96769.71;106218;1274;1201231;-82
2022/02/10 22:52:08;;;;;;;10.50;5.40;;;;;;;5.32;71.95;96774.04;106121;1274;1386039;-83
2022/02/10 22:54:37;;;;;;;10.70;6.00;;;;;;;5.31;72.07;96779.65;105979;1274;1313698;-83
2022/02/10 22:57:05;;;;;;;10.50;5.70;;;;;;;5.30;72.00;96778.17;107134;1274;140953;-83
2022/02/10 22:59:34;;;;;;;10.50;6.80;;;;;;;5.29;71.94;96777.79;107130;1274;130024;-83
2022/02/10 23:02:04;;;;;;;10.80;7.10;;;;;;;5.30;71.98;96783.48;107184;1274;138540;-82
2022/02/10 23:04:32;;;;;;;10.80;6.60;;;;;;;5.31;72.18;96782.80;107238;1274;119332;-82
2022/02/10 23:07:07;;;;;;;11.20;6.70;;;;;;;5.31;72.24;96785.07;107133;1274;119906;-82
2022/02/10 23:09:40;;;;;;;11.00;7.20;;;;;;;5.32;72.32;96787.02;107168;1274;111794;-82
2022/02/10 23:12:11;;;;;;;12.90;6.80;;;;;;;5.31;72.33;96791.33;107078;1274;184879;-83
2022/02/10 23:14:39;;;;;;;;;;;;;;;5.31;72.41;96788.86;107121;1274;185495;-82
2022/02/10 23:17:07;;;;;;;11.20;6.80;;;;;;;5.32;72.46;96792.86;107146;1274;143741;-83
2022/02/10 23:19:38;;;;;;;9.00;5.60;;;;;;;5.33;72.32;96790.09;105797;1274;1888076;-82
2022/02/10 23:22:07;;;;;;;12.90;7.50;;;;;;;5.34;72.32;96790.17;106875;1276;227495;-83
2022/02/10 23:24:36;;;;;;;10.10;5.90;;;;;;;5.32;72.38;96790.65;107262;1274;130286;-82
2022/02/10 23:27:04;;;;;;;10.60;7.10;;;;;;;5.32;72.39;96797.77;107107;1274;153984;-82
2022/02/10 23:29:33;;;;;;;11.80;7.10;;;;;;;5.33;72.51;96799.92;107067;1274;160176;-82
2022/02/10 23:32:03;;;;;;;13.30;7.30;;;;;;;5.33;72.32;96800.98;107188;1274;133490;-82
2022/02/10 23:34:31;;;;;;;;;;;;;;;5.33;72.61;96804.54;107061;1274;156902;-82
2022/02/10 23:36:59;;;;;;;14.70;6.90;;;;;;;5.31;72.61;96801.58;107153;1274;123223;-81
2022/02/10 23:39:30;;;;;;;9.70;6.50;;;;;;;5.31;72.43;96799.73;107198;1274;127419;-83
2022/02/10 23:42:14;;;;;;;10.90;6.90;;;;;;;5.31;72.50;96798.00;107179;1274;196756;-83
2022/02/10 23:44:45;;;;;;;9.80;6.40;;;;;;;5.29;72.38;96801.55;107057;1274;156318;-83
2022/02/10 23:47:18;;;;;;;9.30;5.90;;;;;;;5.29;72.47;96800.44;107070;1274;140550;-82
2022/02/10 23:49:50;;;;;;;10.50;5.60;;;;;;;5.27;72.49;96799.00;107202;1274;110570;-83
2022/02/10 23:52:19;;;;;;;12.30;6.60;;;;;;;5.27;72.57;96803.99;107202;1274;149645;-82
2022/02/10 23:54:52;;;;;;;9.00;6.30;;;;;;;5.28;72.74;96801.69;105404;1274;2208781;-82
2022/02/10 23:57:29;;;;;;;10.80;6.00;;;;;;;5.28;72.65;96798.85;107123;1274;139784;-83
